LFST

Strasbourg Airport

Strasbourg, France
TAF LFST 212300Z 2200/2224 20003KT 3000 BR FEW004 SCT020 BECMG 2200/2203 1500 TEMPO 2200/2212 BKN010 PROB40 TEMPO 2203/2210 0500 FZFG VV/// BECMG 2211/2214 6000 NSW FEW010
Issued Valid From Valid To
Jan-21 @ 23:00 UTC
(an hour ago)
Jan-22 @ 00:00 UTC
(28 minutes ago)
Jan-23 @ 00:00 UTC
(in 24 hours)
Jan-22 @ 00:00 to Jan-23 @ 00:00
TAF LFST 212300Z 2200/2224 20003KT 3000 BR FEW004 SCT020
Wind Visibility Clouds Conditions
200° at 3 knots 2,993 meters
  • Few at 400' AGL
  • Scattered at 2,000' AGL
  • Mist
Becoming Jan-22 @ 00:00 to Jan-22 @ 11:00
BECMG 2200/2203 1500
Wind Visibility Clouds Conditions
200° at 3 knots 1,497 meters
  • Few at 400' AGL
  • Scattered at 2,000' AGL
  • Mist
Temporary Jan-22 @ 00:00 to Jan-22 @ 12:00
TEMPO 2200/2212 BKN010
Clouds
  • Broken at 1,000' AGL
Temporary  (Probability 40%) Jan-22 @ 03:00 to Jan-22 @ 10:00
PROB40 TEMPO 2203/2210 0500 FZFG VV///
Visibility Conditions
499 meters
  • Freezing
  • Fog
Becoming Jan-22 @ 11:00 to Jan-23 @ 00:00
BECMG 2211/2214 6000 NSW FEW010
Wind Visibility Clouds Conditions
200° at 3 knots 6,003 meters
  • Few at 1,000' AGL
TAF LFST 212300Z 2200/2224 20003KT 3000 BR FEW004 SCT020 BECMG 2200/2203 1500 TEMPO 2200/2212 BKN010 PROB40 TEMPO 2203/2210 0500 FZFG VV/// BECMG 2211/2214 6000 NSW FEW010
Issued Jan-21 @ 23:00 UTC
(an hour ago)
Valid From Jan-22 @ 00:00 UTC
(28 minutes ago)
Valid To Jan-23 @ 00:00 UTC
(in 24 hours)
Jan-22 @ 00:00 - Jan-23 @ 00:00
Wind Visibility
200° at 3 knots 2,993 meters
Clouds
  • Few at 400' AGL
  • Scattered at 2,000' AGL
Conditions
  • Mist
Becoming Jan-22 @ 00:00 - Jan-22 @ 11:00
Wind Visibility
200° at 3 knots 1,497 meters
Clouds
  • Few at 400' AGL
  • Scattered at 2,000' AGL
Conditions
  • Mist
Temporary Jan-22 @ 00:00 - Jan-22 @ 12:00
Clouds
  • Broken at 1,000' AGL
Probability 40% Temporary Jan-22 @ 03:00 - Jan-22 @ 10:00
Conditions
  • Freezing
  • Fog
Becoming Jan-22 @ 11:00 - Jan-23 @ 00:00
Wind Visibility
200° at 3 knots 6,003 meters
Clouds
  • Few at 1,000' AGL
Conditions